NSZ3MB ESSA-LEBL
Flight info
| Callsign | NSZ3MB |
|---|---|
| Flight time | N/A |
| Altitude | 36000 |
| Route | NOSLI N850 ABAMA DCT MAKEL DCT GESTO/N0454F380 DCT EXOBA DCT ASBON/N0450F370 DCT ELVET DCT OBORN DCT MOROK DCT GILIR DCT GEVEA DCT INCUS DCT BALSI DCT ETIDO DCT KURIR DCT PEQEF DCT NAKIS DCT BOLSA DCT PPG DCT ALBER |
| Aircraft | B38M/M-SDE2E3GHIJ1LRWXY/LB2 |
Departure
| Time | N/A |
|---|---|
| Airport | Stockholm-Arlanda Airport (ESSA) |
Arrival
| Time | 2026-05-07 19:15 |
|---|---|
| Airport | Josep Tarradellas Barcelona-El Prat Airport (LEBL) |
| Time | Latitude | Longitude | Altitude | Speed | Heading |
|---|---|---|---|---|---|
| 2026-05-07 16:41 | 55.10348 | 12.30954 | 36119 ft | 456 kts | 205° |
| 2026-05-07 16:42 | 55.04574 | 12.26384 | 36116 ft | 456 kts | 205° |
| 2026-05-07 16:42 | 54.98792 | 12.21822 | 36114 ft | 456 kts | 205° |
| 2026-05-07 16:43 | 54.93013 | 12.17278 | 36119 ft | 456 kts | 205° |
| 2026-05-07 16:43 | 54.87235 | 12.12747 | 36119 ft | 455 kts | 205° |
| 2026-05-07 16:44 | 54.81507 | 12.08270 | 36121 ft | 454 kts | 205° |
| 2026-05-07 16:44 | 54.75701 | 12.03748 | 36114 ft | 455 kts | 205° |
| 2026-05-07 16:45 | 54.69982 | 11.99306 | 36111 ft | 454 kts | 205° |
| 2026-05-07 16:45 | 54.64213 | 11.94840 | 36121 ft | 453 kts | 205° |
| 2026-05-07 16:46 | 54.58479 | 11.90414 | 36115 ft | 451 kts | 205° |
| 2026-05-07 16:46 | 54.52719 | 11.85985 | 36113 ft | 456 kts | 204° |
| 2026-05-07 16:47 | 54.46920 | 11.81536 | 36108 ft | 456 kts | 205° |
| 2026-05-07 16:47 | 54.44186 | 11.78814 | 36094 ft | 454 kts | 219° |
| 2026-05-07 16:47 | 54.41788 | 11.75296 | 36107 ft | 454 kts | 219° |
| 2026-05-07 16:48 | 54.36870 | 11.68533 | 36114 ft | 452 kts | 219° |
| 2026-05-07 16:48 | 54.31989 | 11.61760 | 36106 ft | 452 kts | 219° |
| 2026-05-07 16:49 | 54.27102 | 11.54983 | 36104 ft | 452 kts | 219° |
| 2026-05-07 16:49 | 54.22210 | 11.48220 | 36397 ft | 452 kts | 219° |
| 2026-05-07 16:49 | 54.19765 | 11.44848 | 36671 ft | 451 kts | 219° |
| 2026-05-07 16:50 | 54.17332 | 11.41497 | 36992 ft | 448 kts | 219° |
| 2026-05-07 16:50 | 54.14907 | 11.38164 | 37217 ft | 448 kts | 219° |
| 2026-05-07 16:50 | 54.12486 | 11.34840 | 37479 ft | 446 kts | 219° |
| 2026-05-07 16:50 | 54.10076 | 11.31537 | 37729 ft | 444 kts | 219° |
| 2026-05-07 16:51 | 54.07663 | 11.28236 | 37904 ft | 444 kts | 219° |
| 2026-05-07 16:51 | 54.05257 | 11.24948 | 38101 ft | 443 kts | 219° |
| 2026-05-07 16:51 | 54.02886 | 11.21712 | 38131 ft | 444 kts | 219° |
| 2026-05-07 16:52 | 53.98080 | 11.15172 | 38100 ft | 441 kts | 219° |
| 2026-05-07 16:52 | 53.93280 | 11.08657 | 38091 ft | 442 kts | 219° |
| 2026-05-07 16:53 | 53.88478 | 11.02161 | 38097 ft | 440 kts | 219° |
| 2026-05-07 16:53 | 53.83680 | 10.95687 | 38103 ft | 441 kts | 219° |
| 2026-05-07 16:54 | 53.78877 | 10.89230 | 38095 ft | 441 kts | 219° |
| 2026-05-07 16:54 | 53.74065 | 10.82779 | 38098 ft | 442 kts | 219° |
| 2026-05-07 16:55 | 53.69246 | 10.76335 | 38103 ft | 443 kts | 219° |
| 2026-05-07 16:55 | 53.64416 | 10.69899 | 38096 ft | 442 kts | 219° |
| 2026-05-07 16:56 | 53.59581 | 10.63476 | 38088 ft | 442 kts | 219° |
| 2026-05-07 16:56 | 53.52325 | 10.53870 | 38081 ft | 443 kts | 219° |
| 2026-05-07 16:57 | 53.47477 | 10.47477 | 38076 ft | 444 kts | 219° |
| 2026-05-07 16:57 | 53.42619 | 10.41089 | 38069 ft | 444 kts | 219° |
| 2026-05-07 16:58 | 53.37760 | 10.34719 | 38070 ft | 444 kts | 219° |
| 2026-05-07 16:58 | 53.32896 | 10.28361 | 38077 ft | 444 kts | 219° |
| 2026-05-07 16:59 | 53.28027 | 10.22015 | 38072 ft | 444 kts | 219° |
| 2026-05-07 16:59 | 53.23158 | 10.15684 | 38074 ft | 444 kts | 219° |
| 2026-05-07 17:00 | 53.18285 | 10.09366 | 38078 ft | 443 kts | 219° |
| 2026-05-07 17:00 | 53.13419 | 10.03050 | 38076 ft | 444 kts | 219° |
| 2026-05-07 17:01 | 53.08551 | 9.96743 | 38080 ft | 444 kts | 219° |
| 2026-05-07 17:01 | 53.03676 | 9.90446 | 38079 ft | 443 kts | 218° |
| 2026-05-07 17:02 | 52.98798 | 9.84163 | 38061 ft | 443 kts | 218° |
| 2026-05-07 17:02 | 52.93921 | 9.77898 | 38083 ft | 444 kts | 218° |
| 2026-05-07 17:03 | 52.89071 | 9.71689 | 38078 ft | 444 kts | 218° |
| 2026-05-07 17:03 | 52.84183 | 9.65448 | 38082 ft | 444 kts | 218° |
| 2026-05-07 17:04 | 52.79290 | 9.59218 | 38081 ft | 444 kts | 218° |
| 2026-05-07 17:04 | 52.74402 | 9.53014 | 38083 ft | 443 kts | 218° |
| 2026-05-07 17:05 | 52.69505 | 9.46815 | 38089 ft | 444 kts | 218° |
| 2026-05-07 17:05 | 52.64608 | 9.40635 | 38094 ft | 444 kts | 218° |
| 2026-05-07 17:06 | 52.59703 | 9.34464 | 38079 ft | 444 kts | 218° |
| 2026-05-07 17:06 | 52.54797 | 9.28307 | 38084 ft | 444 kts | 218° |
| 2026-05-07 17:07 | 52.49888 | 9.22166 | 38090 ft | 444 kts | 218° |
| 2026-05-07 17:07 | 52.44976 | 9.16039 | 38096 ft | 444 kts | 218° |
| 2026-05-07 17:08 | 52.40060 | 9.09923 | 38093 ft | 444 kts | 218° |
| 2026-05-07 17:08 | 52.35141 | 9.03821 | 38104 ft | 444 kts | 218° |
| 2026-05-07 17:09 | 52.30218 | 8.97733 | 38104 ft | 444 kts | 218° |
| 2026-05-07 17:09 | 52.25292 | 8.91657 | 38104 ft | 444 kts | 218° |
| 2026-05-07 17:10 | 52.20370 | 8.85604 | 38094 ft | 443 kts | 218° |
| 2026-05-07 17:10 | 52.15449 | 8.79570 | 38095 ft | 443 kts | 218° |
| 2026-05-07 17:11 | 52.10522 | 8.73546 | 38088 ft | 443 kts | 218° |
| 2026-05-07 17:11 | 52.05590 | 8.67531 | 38078 ft | 443 kts | 218° |
| 2026-05-07 17:12 | 52.00661 | 8.61537 | 38080 ft | 443 kts | 218° |
| 2026-05-07 17:12 | 51.95756 | 8.55591 | 38072 ft | 443 kts | 218° |
| 2026-05-07 17:13 | 51.90820 | 8.49623 | 38074 ft | 443 kts | 218° |
| 2026-05-07 17:13 | 51.85885 | 8.43668 | 38076 ft | 443 kts | 218° |
| 2026-05-07 17:14 | 51.80946 | 8.37727 | 38077 ft | 443 kts | 218° |
| 2026-05-07 17:14 | 51.76780 | 8.32815 | 38061 ft | 443 kts | 212° |
| 2026-05-07 17:15 | 51.71231 | 8.28501 | 38071 ft | 444 kts | 206° |
| 2026-05-07 17:15 | 51.65683 | 8.24295 | 38080 ft | 444 kts | 206° |
| 2026-05-07 17:16 | 51.60100 | 8.20074 | 38073 ft | 443 kts | 206° |
| 2026-05-07 17:16 | 51.54518 | 8.15866 | 38073 ft | 443 kts | 206° |
| 2026-05-07 17:17 | 51.48938 | 8.11670 | 38067 ft | 443 kts | 206° |
| 2026-05-07 17:17 | 51.43358 | 8.07486 | 38068 ft | 443 kts | 206° |
| 2026-05-07 17:18 | 51.37774 | 8.03310 | 38070 ft | 443 kts | 206° |
| 2026-05-07 17:18 | 51.32186 | 7.99143 | 38063 ft | 443 kts | 206° |
| 2026-05-07 17:19 | 51.26598 | 7.94986 | 38065 ft | 443 kts | 206° |
| 2026-05-07 17:19 | 51.21016 | 7.90846 | 38062 ft | 443 kts | 206° |
| 2026-05-07 17:20 | 51.15428 | 7.86712 | 38058 ft | 443 kts | 206° |
| 2026-05-07 17:20 | 51.09843 | 7.82592 | 38059 ft | 443 kts | 206° |
| 2026-05-07 17:21 | 51.04250 | 7.78476 | 38048 ft | 443 kts | 206° |
| 2026-05-07 17:21 | 50.98661 | 7.74374 | 38051 ft | 442 kts | 206° |
| 2026-05-07 17:22 | 50.93075 | 7.70286 | 38049 ft | 442 kts | 206° |
| 2026-05-07 17:22 | 50.87485 | 7.66206 | 38050 ft | 442 kts | 206° |
| 2026-05-07 17:23 | 50.81892 | 7.62134 | 38052 ft | 442 kts | 206° |
| 2026-05-07 17:23 | 50.76303 | 7.58072 | 38048 ft | 442 kts | 206° |
| 2026-05-07 17:24 | 50.70537 | 7.54780 | 38042 ft | 443 kts | 190° |
| 2026-05-07 17:24 | 50.64433 | 7.53193 | 38007 ft | 445 kts | 192° |
| 2026-05-07 17:25 | 50.58312 | 7.51603 | 38053 ft | 447 kts | 191° |
| 2026-05-07 17:25 | 50.52187 | 7.50034 | 38042 ft | 446 kts | 191° |
| 2026-05-07 17:26 | 50.46062 | 7.48467 | 38044 ft | 446 kts | 191° |
| 2026-05-07 17:26 | 50.39941 | 7.46907 | 38038 ft | 446 kts | 191° |
| 2026-05-07 17:27 | 50.33859 | 7.45359 | 38044 ft | 446 kts | 191° |
| 2026-05-07 17:27 | 50.27735 | 7.43806 | 38044 ft | 446 kts | 191° |
| 2026-05-07 17:28 | 50.21612 | 7.42257 | 38046 ft | 446 kts | 191° |
| 2026-05-07 17:28 | 50.15485 | 7.40710 | 38040 ft | 446 kts | 192° |
| 2026-05-07 17:29 | 50.09359 | 7.39169 | 38047 ft | 446 kts | 192° |
| 2026-05-07 17:29 | 50.03235 | 7.37631 | 38047 ft | 446 kts | 192° |
| 2026-05-07 17:30 | 49.97104 | 7.36096 | 38048 ft | 446 kts | 192° |
| 2026-05-07 17:30 | 49.90982 | 7.34567 | 38048 ft | 445 kts | 192° |
| 2026-05-07 17:31 | 49.84857 | 7.33042 | 38046 ft | 446 kts | 192° |
| 2026-05-07 17:31 | 49.78735 | 7.31521 | 38045 ft | 446 kts | 192° |
| 2026-05-07 17:32 | 49.72617 | 7.30004 | 38042 ft | 446 kts | 192° |
| 2026-05-07 17:32 | 49.66491 | 7.28490 | 38050 ft | 446 kts | 192° |
| 2026-05-07 17:33 | 49.60371 | 7.26982 | 38046 ft | 445 kts | 192° |
| 2026-05-07 17:33 | 49.54247 | 7.25476 | 38051 ft | 446 kts | 192° |
| 2026-05-07 17:34 | 49.48127 | 7.23973 | 38045 ft | 445 kts | 192° |
| 2026-05-07 17:34 | 49.42012 | 7.22477 | 38050 ft | 445 kts | 192° |
| 2026-05-07 17:35 | 49.35898 | 7.20985 | 38047 ft | 445 kts | 192° |
| 2026-05-07 17:35 | 49.29788 | 7.19497 | 38031 ft | 445 kts | 192° |
| 2026-05-07 17:36 | 49.23677 | 7.18013 | 38046 ft | 444 kts | 192° |
| 2026-05-07 17:36 | 49.17574 | 7.16534 | 38049 ft | 444 kts | 192° |
| 2026-05-07 17:37 | 49.11448 | 7.15310 | 38021 ft | 447 kts | 181° |
| 2026-05-07 17:37 | 49.05231 | 7.15811 | 38019 ft | 448 kts | 180° |
| 2026-05-07 17:38 | 48.99006 | 7.16273 | 38051 ft | 448 kts | 180° |
| 2026-05-07 17:38 | 48.92780 | 7.16735 | 38043 ft | 448 kts | 180° |
| 2026-05-07 17:39 | 48.86554 | 7.17197 | 38049 ft | 448 kts | 180° |
| 2026-05-07 17:39 | 48.80330 | 7.17657 | 38054 ft | 448 kts | 181° |
| 2026-05-07 17:40 | 48.74156 | 7.18114 | 38044 ft | 447 kts | 181° |
| 2026-05-07 17:40 | 48.67938 | 7.18572 | 38050 ft | 447 kts | 181° |
| 2026-05-07 17:41 | 48.61718 | 7.19029 | 38054 ft | 447 kts | 180° |
| 2026-05-07 17:41 | 48.55504 | 7.19484 | 38057 ft | 447 kts | 180° |
| 2026-05-07 17:42 | 48.49283 | 7.19940 | 38046 ft | 447 kts | 181° |
| 2026-05-07 17:42 | 48.46209 | 7.19696 | 38013 ft | 440 kts | 196° |
| 2026-05-07 17:42 | 48.43305 | 7.18379 | 38071 ft | 435 kts | 201° |
| 2026-05-07 17:43 | 48.37511 | 7.15555 | 38055 ft | 438 kts | 201° |
| 2026-05-07 17:43 | 48.31735 | 7.12602 | 38041 ft | 438 kts | 202° |
| 2026-05-07 17:44 | 48.25973 | 7.09612 | 38045 ft | 438 kts | 202° |
| 2026-05-07 17:44 | 48.20211 | 7.06620 | 38039 ft | 438 kts | 202° |
| 2026-05-07 17:45 | 48.14446 | 7.03637 | 38047 ft | 438 kts | 202° |
| 2026-05-07 17:45 | 48.08687 | 7.00663 | 38039 ft | 438 kts | 202° |
| 2026-05-07 17:46 | 48.02927 | 6.97694 | 38046 ft | 438 kts | 202° |
| 2026-05-07 17:46 | 47.97162 | 6.94731 | 38029 ft | 438 kts | 202° |
| 2026-05-07 17:47 | 47.91394 | 6.91773 | 38036 ft | 438 kts | 202° |
| 2026-05-07 17:47 | 47.85627 | 6.88822 | 38040 ft | 438 kts | 202° |
| 2026-05-07 17:48 | 47.79860 | 6.85878 | 38020 ft | 438 kts | 202° |
| 2026-05-07 17:48 | 47.74127 | 6.82959 | 38025 ft | 438 kts | 202° |
| 2026-05-07 17:49 | 47.68365 | 6.80031 | 38027 ft | 438 kts | 202° |
| 2026-05-07 17:49 | 47.62597 | 6.77108 | 38021 ft | 438 kts | 202° |
| 2026-05-07 17:50 | 47.56834 | 6.74193 | 38020 ft | 437 kts | 202° |
| 2026-05-07 17:50 | 47.51080 | 6.71290 | 38018 ft | 437 kts | 202° |
| 2026-05-07 17:51 | 47.45325 | 6.68392 | 38021 ft | 437 kts | 202° |
| 2026-05-07 17:51 | 47.39717 | 6.65083 | 37997 ft | 430 kts | 217° |
| 2026-05-07 17:52 | 47.35313 | 6.59742 | 38072 ft | 422 kts | 220° |
| 2026-05-07 17:52 | 47.30736 | 6.54256 | 38001 ft | 427 kts | 222° |
| 2026-05-07 17:53 | 47.26187 | 6.48621 | 38050 ft | 429 kts | 223° |
| 2026-05-07 17:53 | 47.21640 | 6.42948 | 38038 ft | 428 kts | 223° |
| 2026-05-07 17:54 | 47.17103 | 6.37291 | 38030 ft | 426 kts | 223° |
| 2026-05-07 17:54 | 47.12582 | 6.31666 | 38036 ft | 426 kts | 223° |
| 2026-05-07 17:55 | 47.08004 | 6.26145 | 38018 ft | 428 kts | 214° |
| 2026-05-07 17:55 | 47.05299 | 6.24313 | 38010 ft | 432 kts | 198° |
| 2026-05-07 17:55 | 47.02321 | 6.23552 | 38059 ft | 437 kts | 191° |
| 2026-05-07 17:56 | 46.96244 | 6.22596 | 38037 ft | 439 kts | 190° |
| 2026-05-07 17:56 | 46.90153 | 6.21752 | 38025 ft | 440 kts | 189° |
| 2026-05-07 17:57 | 46.85089 | 6.21076 | 38027 ft | 440 kts | 189° |
| 2026-05-07 17:57 | 46.77964 | 6.20129 | 38006 ft | 439 kts | 189° |
| 2026-05-07 17:58 | 46.71923 | 6.19328 | 38020 ft | 439 kts | 189° |
| 2026-05-07 17:58 | 46.65843 | 6.18525 | 38022 ft | 439 kts | 189° |
| 2026-05-07 17:59 | 46.59765 | 6.17723 | 38017 ft | 439 kts | 189° |
| 2026-05-07 17:59 | 46.53685 | 6.16922 | 38016 ft | 439 kts | 189° |
| 2026-05-07 18:00 | 46.47606 | 6.16123 | 38004 ft | 438 kts | 189° |
| 2026-05-07 18:00 | 46.41531 | 6.15327 | 38007 ft | 439 kts | 189° |
| 2026-05-07 18:01 | 46.35457 | 6.14532 | 37994 ft | 438 kts | 189° |
| 2026-05-07 18:01 | 46.29400 | 6.13742 | 37992 ft | 437 kts | 189° |
| 2026-05-07 18:02 | 46.21408 | 6.12217 | 37999 ft | 435 kts | 193° |
| 2026-05-07 18:03 | 46.15424 | 6.10892 | 37992 ft | 434 kts | 193° |
| 2026-05-07 18:03 | 46.09452 | 6.09587 | 37992 ft | 434 kts | 193° |
| 2026-05-07 18:04 | 46.03479 | 6.08286 | 37970 ft | 434 kts | 193° |
| 2026-05-07 18:04 | 45.97511 | 6.06989 | 37964 ft | 433 kts | 193° |
| 2026-05-07 18:05 | 45.91559 | 6.05698 | 37952 ft | 432 kts | 193° |
| 2026-05-07 18:05 | 45.85599 | 6.04403 | 38257 ft | 433 kts | 193° |
| 2026-05-07 18:05 | 45.82623 | 6.03742 | 38443 ft | 433 kts | 193° |
| 2026-05-07 18:06 | 45.79650 | 6.03085 | 38637 ft | 432 kts | 193° |
| 2026-05-07 18:06 | 45.76677 | 6.02429 | 38797 ft | 432 kts | 193° |
| 2026-05-07 18:06 | 45.73713 | 6.01775 | 38926 ft | 431 kts | 193° |
| 2026-05-07 18:07 | 45.67777 | 6.00468 | 38960 ft | 431 kts | 193° |
| 2026-05-07 18:07 | 45.61855 | 5.99166 | 38966 ft | 431 kts | 193° |
| 2026-05-07 18:08 | 45.55935 | 5.97868 | 38975 ft | 431 kts | 193° |
| 2026-05-07 18:08 | 45.50062 | 5.96374 | 38953 ft | 424 kts | 202° |
| 2026-05-07 18:08 | 45.47453 | 5.94542 | 38966 ft | 416 kts | 218° |
| 2026-05-07 18:09 | 45.45246 | 5.91898 | 38957 ft | 414 kts | 224° |
| 2026-05-07 18:09 | 45.41031 | 5.86291 | 38968 ft | 417 kts | 226° |
| 2026-05-07 18:10 | 45.36913 | 5.80514 | 38973 ft | 415 kts | 226° |
| 2026-05-07 18:10 | 45.32816 | 5.74683 | 38960 ft | 418 kts | 227° |
| 2026-05-07 18:11 | 45.28716 | 5.68838 | 38956 ft | 417 kts | 227° |
| 2026-05-07 18:11 | 45.24614 | 5.63003 | 38953 ft | 418 kts | 226° |
| 2026-05-07 18:12 | 45.20516 | 5.57184 | 38990 ft | 416 kts | 226° |
| 2026-05-07 18:12 | 45.16420 | 5.51381 | 38971 ft | 416 kts | 226° |
| 2026-05-07 18:13 | 45.12347 | 5.45623 | 38980 ft | 416 kts | 226° |
| 2026-05-07 18:13 | 45.08245 | 5.39838 | 38976 ft | 416 kts | 226° |
| 2026-05-07 18:14 | 45.04142 | 5.34065 | 38968 ft | 416 kts | 226° |
| 2026-05-07 18:14 | 45.00035 | 5.28301 | 38961 ft | 416 kts | 226° |
| 2026-05-07 18:15 | 44.95925 | 5.22543 | 38951 ft | 416 kts | 226° |
| 2026-05-07 18:15 | 44.91817 | 5.16801 | 38971 ft | 416 kts | 226° |
| 2026-05-07 18:16 | 44.87700 | 5.11059 | 38961 ft | 416 kts | 226° |
| 2026-05-07 18:16 | 44.83590 | 5.05338 | 38964 ft | 414 kts | 226° |
| 2026-05-07 18:17 | 44.79489 | 4.99642 | 38963 ft | 414 kts | 226° |
| 2026-05-07 18:17 | 44.75384 | 4.93952 | 38976 ft | 415 kts | 226° |
| 2026-05-07 18:18 | 44.71498 | 4.87982 | 38960 ft | 413 kts | 234° |
| 2026-05-07 18:18 | 44.67993 | 4.81546 | 38964 ft | 415 kts | 233° |
| 2026-05-07 18:19 | 44.64495 | 4.75098 | 38956 ft | 415 kts | 233° |
| 2026-05-07 18:19 | 44.61001 | 4.68647 | 38955 ft | 415 kts | 233° |
| 2026-05-07 18:20 | 44.57504 | 4.62203 | 38949 ft | 415 kts | 233° |
| 2026-05-07 18:20 | 44.54006 | 4.55771 | 38958 ft | 415 kts | 233° |
| 2026-05-07 18:21 | 44.50495 | 4.49332 | 38950 ft | 416 kts | 233° |
| 2026-05-07 18:21 | 44.47009 | 4.42952 | 38948 ft | 415 kts | 233° |
| 2026-05-07 18:22 | 44.43497 | 4.36539 | 38952 ft | 415 kts | 233° |
| 2026-05-07 18:22 | 44.39983 | 4.30133 | 38952 ft | 415 kts | 233° |
| 2026-05-07 18:23 | 44.36982 | 4.23298 | 38972 ft | 413 kts | 245° |
| 2026-05-07 18:23 | 44.34438 | 4.16066 | 38959 ft | 415 kts | 244° |
| 2026-05-07 18:24 | 44.31177 | 4.09516 | 38948 ft | 414 kts | 220° |
| 2026-05-07 18:24 | 44.26305 | 4.05125 | 38950 ft | 419 kts | 213° |
| 2026-05-07 18:25 | 44.21309 | 4.01001 | 38965 ft | 420 kts | 213° |
| 2026-05-07 18:25 | 44.16255 | 3.96924 | 38961 ft | 420 kts | 212° |
| 2026-05-07 18:26 | 44.11201 | 3.92872 | 38963 ft | 419 kts | 212° |
| 2026-05-07 18:26 | 44.06154 | 3.88833 | 38956 ft | 419 kts | 212° |
| 2026-05-07 18:27 | 44.01101 | 3.84799 | 38961 ft | 419 kts | 212° |
| 2026-05-07 18:27 | 43.96046 | 3.80771 | 38958 ft | 419 kts | 212° |
| 2026-05-07 18:28 | 43.90989 | 3.76748 | 38967 ft | 419 kts | 212° |
| 2026-05-07 18:28 | 43.85930 | 3.72733 | 38969 ft | 419 kts | 212° |
| 2026-05-07 18:29 | 43.80870 | 3.68724 | 38968 ft | 419 kts | 212° |
| 2026-05-07 18:29 | 43.75805 | 3.64720 | 38962 ft | 419 kts | 212° |
| 2026-05-07 18:30 | 43.70745 | 3.60727 | 38967 ft | 419 kts | 212° |
| 2026-05-07 18:30 | 43.65683 | 3.56740 | 38965 ft | 419 kts | 212° |
| 2026-05-07 18:31 | 43.60620 | 3.52761 | 38968 ft | 419 kts | 212° |
| 2026-05-07 18:31 | 43.55555 | 3.48788 | 38957 ft | 419 kts | 212° |
| 2026-05-07 18:32 | 43.50479 | 3.44814 | 38966 ft | 420 kts | 212° |
| 2026-05-07 18:32 | 43.45430 | 3.40869 | 38967 ft | 420 kts | 212° |
| 2026-05-07 18:33 | 43.40346 | 3.36903 | 38969 ft | 420 kts | 212° |
| 2026-05-07 18:33 | 43.35260 | 3.32943 | 38961 ft | 420 kts | 212° |
| 2026-05-07 18:34 | 43.30174 | 3.28999 | 38962 ft | 420 kts | 212° |
| 2026-05-07 18:34 | 43.25081 | 3.25055 | 38968 ft | 420 kts | 212° |
| 2026-05-07 18:35 | 43.19989 | 3.21119 | 38960 ft | 420 kts | 212° |
| 2026-05-07 18:35 | 43.14896 | 3.17190 | 38961 ft | 420 kts | 212° |
| 2026-05-07 18:36 | 43.09809 | 3.13275 | 38961 ft | 419 kts | 212° |
| 2026-05-07 18:36 | 43.04721 | 3.09365 | 38956 ft | 420 kts | 212° |
| 2026-05-07 18:36 | 43.02179 | 3.07414 | 38405 ft | 420 kts | 212° |
| 2026-05-07 18:37 | 42.99612 | 3.05446 | 37436 ft | 424 kts | 212° |
| 2026-05-07 18:37 | 42.97065 | 3.03495 | 37004 ft | 416 kts | 212° |
| 2026-05-07 18:37 | 42.94549 | 3.01571 | 36328 ft | 414 kts | 212° |
| 2026-05-07 18:37 | 42.92057 | 2.99667 | 35862 ft | 407 kts | 212° |
| 2026-05-07 18:38 | 42.89590 | 2.97782 | 35126 ft | 407 kts | 211° |
| 2026-05-07 18:38 | 42.87141 | 2.95915 | 34700 ft | 399 kts | 211° |
| 2026-05-07 18:38 | 42.84749 | 2.94090 | 34342 ft | 390 kts | 211° |
| 2026-05-07 18:38 | 42.82395 | 2.92298 | 33829 ft | 385 kts | 211° |
| 2026-05-07 18:39 | 42.80070 | 2.90528 | 33009 ft | 382 kts | 211° |
| 2026-05-07 18:39 | 42.77742 | 2.88757 | 31909 ft | 387 kts | 211° |
| 2026-05-07 18:39 | 42.75283 | 2.87158 | 30800 ft | 399 kts | 200° |
| 2026-05-07 18:39 | 42.72516 | 2.86521 | 29910 ft | 408 kts | 189° |
| 2026-05-07 18:40 | 42.69700 | 2.86138 | 29234 ft | 404 kts | 189° |
| 2026-05-07 18:40 | 42.66919 | 2.85777 | 28704 ft | 399 kts | 189° |
| 2026-05-07 18:40 | 42.64170 | 2.85439 | 28172 ft | 394 kts | 189° |
| 2026-05-07 18:40 | 42.61449 | 2.85116 | 27619 ft | 391 kts | 189° |
| 2026-05-07 18:41 | 42.58751 | 2.84799 | 27078 ft | 388 kts | 188° |
| 2026-05-07 18:41 | 42.56070 | 2.84485 | 26532 ft | 384 kts | 188° |
| 2026-05-07 18:41 | 42.53389 | 2.84170 | 25991 ft | 389 kts | 188° |
| 2026-05-07 18:41 | 42.50682 | 2.83854 | 25447 ft | 392 kts | 188° |
| 2026-05-07 18:42 | 42.47976 | 2.83539 | 25160 ft | 386 kts | 188° |
| 2026-05-07 18:42 | 42.45342 | 2.83206 | 24930 ft | 375 kts | 192° |
| 2026-05-07 18:42 | 42.42813 | 2.82554 | 24676 ft | 365 kts | 193° |
| 2026-05-07 18:42 | 42.40353 | 2.81928 | 24540 ft | 354 kts | 193° |
| 2026-05-07 18:43 | 42.37933 | 2.81327 | 24307 ft | 359 kts | 193° |
| 2026-05-07 18:43 | 42.35440 | 2.80719 | 23856 ft | 366 kts | 193° |
| 2026-05-07 18:43 | 42.32924 | 2.80113 | 23396 ft | 368 kts | 193° |
| 2026-05-07 18:43 | 42.30408 | 2.79508 | 22886 ft | 367 kts | 193° |
| 2026-05-07 18:44 | 42.27900 | 2.78905 | 22405 ft | 366 kts | 193° |
| 2026-05-07 18:44 | 42.25396 | 2.78305 | 21955 ft | 365 kts | 193° |
| 2026-05-07 18:44 | 42.22900 | 2.77706 | 21503 ft | 364 kts | 193° |
| 2026-05-07 18:44 | 42.20406 | 2.77108 | 21064 ft | 363 kts | 192° |
| 2026-05-07 18:45 | 42.17954 | 2.76521 | 20626 ft | 362 kts | 192° |
| 2026-05-07 18:45 | 42.15482 | 2.75892 | 20178 ft | 360 kts | 197° |
| 2026-05-07 18:45 | 42.13231 | 2.74495 | 19695 ft | 356 kts | 217° |
| 2026-05-07 18:45 | 42.11427 | 2.72255 | 19316 ft | 352 kts | 227° |
| 2026-05-07 18:46 | 42.09750 | 2.69872 | 18920 ft | 350 kts | 228° |
| 2026-05-07 18:46 | 42.08109 | 2.67468 | 18516 ft | 348 kts | 229° |
| 2026-05-07 18:46 | 42.06486 | 2.65055 | 18098 ft | 347 kts | 229° |
| 2026-05-07 18:46 | 42.04880 | 2.62644 | 17651 ft | 345 kts | 229° |
| 2026-05-07 18:47 | 42.03287 | 2.60239 | 17248 ft | 343 kts | 229° |
| 2026-05-07 18:47 | 42.01709 | 2.57850 | 16854 ft | 340 kts | 229° |
| 2026-05-07 18:47 | 42.00142 | 2.55475 | 16466 ft | 338 kts | 229° |
| 2026-05-07 18:47 | 41.98588 | 2.53120 | 16079 ft | 336 kts | 229° |
| 2026-05-07 18:48 | 41.97041 | 2.50778 | 15696 ft | 335 kts | 229° |
| 2026-05-07 18:48 | 41.95995 | 2.49194 | 15438 ft | 337 kts | 229° |
| 2026-05-07 18:48 | 41.94450 | 2.46857 | 15049 ft | 341 kts | 229° |
| 2026-05-07 18:48 | 41.92850 | 2.44439 | 14653 ft | 342 kts | 229° |
| 2026-05-07 18:49 | 41.91292 | 2.42084 | 14277 ft | 342 kts | 229° |
| 2026-05-07 18:49 | 41.89714 | 2.39705 | 13889 ft | 340 kts | 229° |
| 2026-05-07 18:49 | 41.88144 | 2.37337 | 13443 ft | 339 kts | 229° |
| 2026-05-07 18:49 | 41.86573 | 2.34972 | 12974 ft | 339 kts | 229° |
| 2026-05-07 18:50 | 41.85011 | 2.32620 | 12591 ft | 336 kts | 229° |
| 2026-05-07 18:50 | 41.83463 | 2.30292 | 12229 ft | 333 kts | 229° |
| 2026-05-07 18:50 | 41.81925 | 2.27980 | 11866 ft | 331 kts | 229° |
| 2026-05-07 18:50 | 41.80399 | 2.25689 | 11495 ft | 329 kts | 228° |
| 2026-05-07 18:51 | 41.78907 | 2.23450 | 11140 ft | 327 kts | 228° |
| 2026-05-07 18:51 | 41.77353 | 2.21244 | 10740 ft | 325 kts | 219° |
| 2026-05-07 18:51 | 41.75381 | 2.19844 | 10414 ft | 320 kts | 196° |
| 2026-05-07 18:51 | 41.73275 | 2.19046 | 10294 ft | 309 kts | 196° |
| 2026-05-07 18:52 | 41.71240 | 2.18265 | 10194 ft | 299 kts | 195° |
| 2026-05-07 18:52 | 41.69263 | 2.17510 | 10065 ft | 293 kts | 195° |
| 2026-05-07 18:52 | 41.67317 | 2.16771 | 9947 ft | 289 kts | 195° |
| 2026-05-07 18:52 | 41.65381 | 2.16036 | 9866 ft | 290 kts | 195° |
| 2026-05-07 18:53 | 41.63442 | 2.15302 | 9782 ft | 290 kts | 195° |
| 2026-05-07 18:53 | 41.61501 | 2.14568 | 9697 ft | 289 kts | 195° |
| 2026-05-07 18:53 | 41.59567 | 2.13835 | 9612 ft | 289 kts | 195° |
| 2026-05-07 18:53 | 41.57633 | 2.13104 | 9529 ft | 289 kts | 195° |
| 2026-05-07 18:54 | 41.55703 | 2.12375 | 9448 ft | 288 kts | 195° |
| 2026-05-07 18:54 | 41.53775 | 2.11640 | 9365 ft | 288 kts | 198° |
| 2026-05-07 18:54 | 41.52050 | 2.10339 | 9265 ft | 287 kts | 223° |
| 2026-05-07 18:54 | 41.50842 | 2.08227 | 9213 ft | 288 kts | 238° |
| 2026-05-07 18:55 | 41.49765 | 2.05965 | 9144 ft | 289 kts | 238° |
| 2026-05-07 18:55 | 41.48696 | 2.03695 | 9060 ft | 289 kts | 238° |
| 2026-05-07 18:55 | 41.47636 | 2.01423 | 8959 ft | 288 kts | 238° |
| 2026-05-07 18:55 | 41.46583 | 1.99151 | 8881 ft | 288 kts | 238° |
| 2026-05-07 18:56 | 41.45532 | 1.96872 | 8800 ft | 289 kts | 238° |
| 2026-05-07 18:56 | 41.44484 | 1.94592 | 8720 ft | 288 kts | 238° |
| 2026-05-07 18:56 | 41.43436 | 1.92316 | 8621 ft | 288 kts | 238° |
| 2026-05-07 18:56 | 41.42393 | 1.90048 | 8555 ft | 287 kts | 238° |
| 2026-05-07 18:57 | 41.41348 | 1.87778 | 8469 ft | 288 kts | 238° |
| 2026-05-07 18:57 | 41.40300 | 1.85504 | 8369 ft | 288 kts | 238° |
| 2026-05-07 18:57 | 41.39251 | 1.83229 | 8282 ft | 287 kts | 238° |
| 2026-05-07 18:57 | 41.38206 | 1.80963 | 8198 ft | 286 kts | 238° |
| 2026-05-07 18:58 | 41.37183 | 1.78748 | 8114 ft | 276 kts | 238° |
| 2026-05-07 18:58 | 41.36199 | 1.76617 | 8028 ft | 266 kts | 238° |
| 2026-05-07 18:58 | 41.35150 | 1.74619 | 7874 ft | 263 kts | 222° |
| 2026-05-07 18:58 | 41.33599 | 1.73450 | 7712 ft | 257 kts | 191° |
| 2026-05-07 18:59 | 41.31840 | 1.73463 | 7591 ft | 254 kts | 163° |
| 2026-05-07 18:59 | 41.30195 | 1.74303 | 7501 ft | 254 kts | 155° |
| 2026-05-07 18:59 | 41.28521 | 1.75031 | 7372 ft | 254 kts | 174° |
| 2026-05-07 18:59 | 41.26795 | 1.74640 | 7223 ft | 256 kts | 205° |
| 2026-05-07 19:00 | 41.25431 | 1.73142 | 7098 ft | 258 kts | 234° |
| 2026-05-07 19:00 | 41.24612 | 1.71048 | 6985 ft | 261 kts | 245° |
| 2026-05-07 19:00 | 41.23833 | 1.68829 | 6864 ft | 261 kts | 244° |
| 2026-05-07 19:00 | 41.23077 | 1.66665 | 6732 ft | 255 kts | 244° |
| 2026-05-07 19:01 | 41.22345 | 1.64557 | 6603 ft | 248 kts | 244° |
| 2026-05-07 19:01 | 41.21646 | 1.62537 | 6485 ft | 239 kts | 244° |
| 2026-05-07 19:01 | 41.20968 | 1.60569 | 6392 ft | 231 kts | 244° |
| 2026-05-07 19:01 | 41.20303 | 1.58642 | 6249 ft | 228 kts | 244° |
| 2026-05-07 19:02 | 41.19646 | 1.56738 | 6105 ft | 227 kts | 244° |
| 2026-05-07 19:02 | 41.18992 | 1.54840 | 5969 ft | 225 kts | 244° |
| 2026-05-07 19:02 | 41.18339 | 1.52950 | 5836 ft | 225 kts | 244° |
| 2026-05-07 19:02 | 41.17698 | 1.51059 | 5708 ft | 224 kts | 245° |
| 2026-05-07 19:03 | 41.17064 | 1.49183 | 5586 ft | 222 kts | 244° |
| 2026-05-07 19:03 | 41.16439 | 1.47336 | 5434 ft | 216 kts | 244° |
| 2026-05-07 19:03 | 41.15688 | 1.45679 | 5261 ft | 205 kts | 219° |
| 2026-05-07 19:03 | 41.14445 | 1.45072 | 5085 ft | 188 kts | 173° |
| 2026-05-07 19:04 | 41.13204 | 1.45565 | 4988 ft | 188 kts | 157° |
| 2026-05-07 19:04 | 41.12004 | 1.46254 | 4904 ft | 188 kts | 156° |
| 2026-05-07 19:04 | 41.10818 | 1.46978 | 4775 ft | 188 kts | 148° |
| 2026-05-07 19:04 | 41.10034 | 1.48292 | 4575 ft | 185 kts | 108° |
| 2026-05-07 19:05 | 41.09892 | 1.49990 | 4463 ft | 188 kts | 86° |
| 2026-05-07 19:05 | 41.10258 | 1.51658 | 4358 ft | 190 kts | 67° |
| 2026-05-07 19:05 | 41.10813 | 1.53253 | 4267 ft | 190 kts | 68° |
| 2026-05-07 19:05 | 41.11351 | 1.54844 | 4145 ft | 189 kts | 68° |
| 2026-05-07 19:06 | 41.11894 | 1.56425 | 4029 ft | 188 kts | 66° |
| 2026-05-07 19:06 | 41.13054 | 1.59531 | 3888 ft | 187 kts | 66° |
| 2026-05-07 19:06 | 41.13616 | 1.61089 | 3811 ft | 187 kts | 66° |
| 2026-05-07 19:07 | 41.14171 | 1.62653 | 3747 ft | 187 kts | 67° |
| 2026-05-07 19:07 | 41.14720 | 1.64214 | 3675 ft | 186 kts | 67° |
| 2026-05-07 19:07 | 41.15263 | 1.65773 | 3593 ft | 186 kts | 67° |
| 2026-05-07 19:07 | 41.15806 | 1.67338 | 3526 ft | 187 kts | 67° |
| 2026-05-07 19:08 | 41.16346 | 1.68901 | 3446 ft | 186 kts | 67° |
| 2026-05-07 19:08 | 41.16883 | 1.70461 | 3388 ft | 185 kts | 68° |
| 2026-05-07 19:08 | 41.17417 | 1.72009 | 3304 ft | 184 kts | 67° |
| 2026-05-07 19:08 | 41.17948 | 1.73556 | 3233 ft | 185 kts | 67° |
| 2026-05-07 19:09 | 41.18474 | 1.75084 | 3168 ft | 184 kts | 67° |
| 2026-05-07 19:09 | 41.19006 | 1.76634 | 3094 ft | 184 kts | 68° |
| 2026-05-07 19:09 | 41.19537 | 1.78178 | 3021 ft | 184 kts | 67° |
| 2026-05-07 19:09 | 41.20066 | 1.79719 | 2979 ft | 184 kts | 67° |
| 2026-05-07 19:10 | 41.20583 | 1.81226 | 2971 ft | 176 kts | 67° |
| 2026-05-07 19:10 | 41.21083 | 1.82685 | 2992 ft | 172 kts | 68° |
| 2026-05-07 19:10 | 41.21573 | 1.84112 | 3068 ft | 168 kts | 68° |
| 2026-05-07 19:10 | 41.22051 | 1.85502 | 3027 ft | 164 kts | 67° |
| 2026-05-07 19:11 | 41.22521 | 1.86874 | 2989 ft | 163 kts | 68° |
| 2026-05-07 19:11 | 41.22988 | 1.88237 | 2993 ft | 162 kts | 68° |
| 2026-05-07 19:11 | 41.23456 | 1.89600 | 2821 ft | 161 kts | 67° |
| 2026-05-07 19:11 | 41.23920 | 1.90952 | 2643 ft | 161 kts | 67° |
| 2026-05-07 19:12 | 41.24381 | 1.92298 | 2450 ft | 160 kts | 67° |
| 2026-05-07 19:12 | 41.24840 | 1.93638 | 2245 ft | 159 kts | 67° |
| 2026-05-07 19:12 | 41.25292 | 1.94959 | 2036 ft | 154 kts | 67° |
| 2026-05-07 19:12 | 41.25726 | 1.96222 | 1870 ft | 148 kts | 66° |
| 2026-05-07 19:13 | 41.26152 | 1.97464 | 1660 ft | 147 kts | 66° |
| 2026-05-07 19:13 | 41.26573 | 1.98695 | 1465 ft | 146 kts | 66° |
| 2026-05-07 19:13 | 41.26992 | 1.99915 | 1264 ft | 144 kts | 66° |
| 2026-05-07 19:13 | 41.27407 | 2.01128 | 1081 ft | 144 kts | 66° |
| 2026-05-07 19:14 | 41.27821 | 2.02336 | 863 ft | 143 kts | 66° |
| 2026-05-07 19:14 | 41.28237 | 2.03552 | 682 ft | 145 kts | 66° |
| 2026-05-07 19:14 | 41.28655 | 2.04771 | 472 ft | 145 kts | 66° |
| 2026-05-07 19:14 | 41.29067 | 2.05965 | 268 ft | 142 kts | 66° |
| 2026-05-07 19:15 | 41.29475 | 2.07181 | 82 ft | 142 kts | 66° |
| 2026-05-07 19:15 | 41.29860 | 2.08308 | 27 ft | 124 kts | 65° |
| 2026-05-07 19:15 | 41.30143 | 2.09115 | 21 ft | 54 kts | 66° |
| 2026-05-07 19:15 | 41.30304 | 2.09440 | 19 ft | 42 kts | 40° |
| 2026-05-07 19:16 | 41.30428 | 2.09533 | 20 ft | 15 kts | 355° |
| 2026-05-07 19:16 | 41.30495 | 2.09480 | 21 ft | 11 kts | 297° |
| 2026-05-07 19:16 | 41.30480 | 2.09384 | 25 ft | 12 kts | 245° |
| 2026-05-07 19:16 | 41.30443 | 2.09274 | 22 ft | 14 kts | 246° |
| 2026-05-07 19:17 | 41.30400 | 2.09149 | 21 ft | 16 kts | 245° |
| 2026-05-07 19:17 | 41.30348 | 2.08997 | 20 ft | 19 kts | 245° |
| 2026-05-07 19:17 | 41.30290 | 2.08825 | 21 ft | 21 kts | 245° |
| 2026-05-07 19:17 | 41.30230 | 2.08650 | 22 ft | 21 kts | 246° |
| 2026-05-07 19:18 | 41.30167 | 2.08468 | 24 ft | 22 kts | 245° |
| 2026-05-07 19:18 | 41.30112 | 2.08307 | 22 ft | 16 kts | 245° |
| 2026-05-07 19:18 | 41.30119 | 2.08214 | 21 ft | 12 kts | 328° |
| 2026-05-07 19:18 | 41.30179 | 2.08181 | 22 ft | 7 kts | 335° |
| 2026-05-07 19:19 | 41.30223 | 2.08149 | 24 ft | 8 kts | 324° |
| 2026-05-07 19:19 | 41.30257 | 2.08098 | 25 ft | 8 kts | 309° |
| 2026-05-07 19:19 | 41.30276 | 2.08067 | 25 ft | 2 kts | 309° |
| 2026-05-07 19:19 | 41.30279 | 2.08062 | 24 ft | 0 kts | 309° |